createdAt,value
2024-01-19T00:03:11.546Z,4.35
2024-01-19T00:07:35.357Z,4.03
2024-01-19T00:11:58.717Z,4.22
2024-01-19T00:16:24.209Z,3.63
2024-01-19T00:20:47.578Z,3.95
2024-01-19T00:25:11.787Z,3.70
2024-01-19T00:29:35.120Z,3.55
2024-01-19T00:34:00.913Z,3.10
2024-01-19T00:38:24.272Z,3.47
2024-01-19T00:42:48.357Z,3.60
2024-01-19T00:47:12.160Z,3.53
2024-01-19T00:51:37.791Z,3.80
2024-01-19T00:56:01.093Z,3.10
2024-01-19T01:00:25.273Z,3.42
2024-01-19T01:04:48.985Z,3.33
2024-01-19T01:09:14.547Z,3.38
2024-01-19T01:13:37.856Z,3.40
2024-01-19T01:18:02.491Z,3.63
2024-01-19T01:22:25.912Z,3.77
2024-01-19T01:26:51.646Z,2.83
2024-01-19T01:31:15.005Z,3.00
2024-01-19T01:35:39.078Z,3.40
2024-01-19T01:40:02.754Z,3.20
2024-01-19T01:44:28.307Z,2.90
2024-01-19T01:48:52.231Z,2.83
2024-01-19T01:53:19.923Z,2.90
2024-01-19T01:57:45.125Z,2.88
2024-01-19T02:02:10.275Z,3.15
2024-01-19T02:06:33.768Z,2.78
2024-01-19T02:10:58.494Z,2.83
2024-01-19T02:15:23.313Z,3.07
2024-01-19T02:19:48.743Z,2.50
2024-01-19T02:24:16.137Z,2.67
2024-01-19T02:28:40.428Z,2.37
2024-01-19T02:33:05.096Z,2.73
2024-01-19T02:37:29.018Z,2.95
2024-01-19T02:41:53.764Z,2.20
2024-01-19T02:46:19.916Z,2.38
2024-01-19T02:50:43.634Z,2.58
2024-01-19T02:55:08.743Z,2.40
2024-01-19T02:59:33.451Z,2.30
2024-01-19T03:03:57.254Z,2.20
2024-01-19T03:08:21.992Z,2.67
2024-01-19T03:12:46.284Z,2.30
2024-01-19T03:17:10.945Z,2.30
2024-01-19T03:21:35.091Z,2.22
2024-01-19T03:25:58.365Z,2.20
2024-01-19T03:30:22.825Z,2.15
2024-01-19T03:34:47.485Z,2.35
2024-01-19T03:39:11.348Z,2.47
2024-01-19T03:43:35.023Z,1.90
2024-01-19T03:47:59.202Z,1.90
2024-01-19T03:52:24.056Z,2.00
2024-01-19T03:56:48.204Z,1.80
2024-01-19T04:01:11.579Z,2.10
2024-01-19T04:05:35.903Z,2.00
2024-01-19T04:10:00.939Z,2.10
2024-01-19T04:14:25.149Z,1.87
2024-01-19T04:18:48.702Z,1.70
2024-01-19T04:23:13.382Z,1.57
2024-01-19T04:27:38.101Z,1.83
2024-01-19T04:32:02.305Z,1.50
2024-01-19T04:36:25.615Z,1.60
2024-01-19T04:40:50.086Z,1.67
2024-01-19T04:45:14.978Z,1.37
2024-01-19T04:49:39.202Z,1.40
2024-01-19T04:54:02.923Z,1.40
2024-01-19T04:58:26.849Z,1.50
2024-01-19T05:02:51.934Z,1.60
2024-01-19T05:07:16.135Z,1.33
2024-01-19T05:11:40.058Z,1.63
2024-01-19T05:16:04.453Z,1.40
2024-01-19T05:20:29.414Z,1.40
2024-01-19T05:24:53.671Z,1.40
2024-01-19T05:29:17.141Z,1.30
2024-01-19T05:33:41.852Z,1.30
2024-01-19T05:38:06.779Z,1.57
2024-01-19T05:42:30.903Z,1.20
2024-01-19T05:46:54.219Z,1.43
2024-01-19T05:51:18.552Z,1.27
2024-01-19T05:55:44.851Z,1.63
2024-01-19T06:00:10.228Z,1.53
2024-01-19T06:04:38.318Z,1.50
2024-01-19T06:09:02.509Z,1.40
2024-01-19T06:13:27.195Z,1.60
2024-01-19T06:17:51.038Z,1.63
2024-01-19T06:22:14.377Z,1.47
2024-01-19T06:26:39.248Z,1.60
2024-01-19T06:31:06.330Z,1.50
2024-01-19T06:35:30.496Z,1.73
2024-01-19T06:39:53.978Z,1.67
2024-01-19T06:44:19.669Z,1.63
2024-01-19T06:48:45.124Z,1.37
2024-01-19T06:53:09.263Z,1.70
2024-01-19T06:57:32.877Z,1.48
2024-01-19T07:01:56.604Z,1.43
2024-01-19T07:06:21.412Z,1.50
2024-01-19T07:10:45.645Z,1.60
2024-01-19T07:15:09.855Z,1.45
2024-01-19T07:19:34.012Z,1.52
2024-01-19T07:23:58.730Z,1.73
2024-01-19T07:28:22.912Z,1.50
2024-01-19T07:32:55.862Z,1.40
2024-01-19T07:37:28.879Z,2.00
2024-01-19T07:41:53.576Z,1.70
2024-01-19T07:46:17.600Z,2.07
2024-01-19T07:50:40.930Z,2.00
2024-01-19T07:55:06.649Z,1.93
2024-01-19T07:59:31.711Z,1.95
2024-01-19T08:03:55.546Z,2.00
2024-01-19T08:08:18.900Z,2.23
2024-01-19T08:12:43.327Z,2.60
2024-01-19T08:17:09.202Z,2.33
2024-01-19T08:21:33.039Z,2.50
2024-01-19T08:25:56.450Z,2.53
2024-01-19T08:30:20.901Z,2.60
2024-01-19T08:34:46.197Z,2.50
2024-01-19T08:39:10.845Z,2.73
2024-01-19T08:43:34.152Z,2.60
2024-01-19T08:47:58.893Z,2.47
2024-01-19T08:52:23.637Z,2.40
2024-01-19T08:56:55.316Z,2.87
2024-01-19T09:01:22.070Z,2.63
2024-01-19T09:05:47.198Z,2.23
2024-01-19T09:10:12.271Z,2.83
2024-01-19T09:14:36.147Z,2.73
2024-01-19T09:18:59.806Z,3.00
2024-01-19T09:23:24.117Z,2.23
2024-01-19T09:27:48.830Z,2.80
2024-01-19T09:32:17.779Z,2.63
2024-01-19T09:36:41.405Z,2.33
2024-01-19T09:41:17.132Z,2.70
2024-01-19T09:45:43.402Z,2.67
2024-01-19T09:50:08.761Z,2.37
2024-01-19T09:54:35.775Z,2.88
2024-01-19T09:59:02.153Z,3.08
2024-01-19T10:03:30.737Z,2.85
2024-01-19T10:07:57.190Z,2.67
2024-01-19T10:12:21.339Z,2.92
2024-01-19T10:16:45.760Z,2.40
2024-01-19T10:21:10.486Z,2.70
2024-01-19T10:25:36.533Z,2.58
2024-01-19T10:30:10.983Z,2.75
2024-01-19T10:34:35.332Z,2.70
2024-01-19T10:39:18.195Z,2.70
2024-01-19T10:43:42.360Z,2.88
2024-01-19T10:48:06.270Z,2.58
2024-01-19T10:52:32.032Z,2.47
2024-01-19T10:57:05.462Z,2.67
2024-01-19T11:01:29.793Z,2.40
2024-01-19T11:05:55.388Z,2.80
2024-01-19T11:10:20.599Z,2.60
2024-01-19T11:14:47.589Z,2.40
2024-01-19T11:19:12.504Z,2.53
2024-01-19T11:23:39.135Z,2.08
2024-01-19T11:28:19.123Z,2.30
2024-01-19T11:32:43.997Z,2.60
2024-01-19T11:37:07.778Z,2.67
2024-01-19T11:41:49.363Z,2.22
2024-01-19T11:46:13.691Z,3.00
2024-01-19T11:50:46.353Z,2.25
2024-01-19T11:55:42.439Z,2.05
2024-01-19T12:00:07.059Z,2.20
2024-01-19T12:04:31.659Z,2.17
2024-01-19T12:09:05.486Z,2.40
2024-01-19T12:13:30.476Z,2.30
2024-01-19T12:17:53.818Z,2.00
2024-01-19T12:22:18.087Z,2.10
2024-01-19T12:26:51.415Z,1.67
2024-01-19T12:31:23.658Z,1.90
2024-01-19T12:35:48.096Z,2.10
2024-01-19T12:40:16.331Z,1.70
2024-01-19T12:44:41.287Z,2.08
2024-01-19T12:49:06.432Z,1.70
2024-01-19T12:53:32.065Z,1.90
2024-01-19T12:57:55.901Z,1.73
2024-01-19T13:02:20.667Z,1.63
2024-01-19T13:06:45.647Z,2.10
2024-01-19T13:11:10.066Z,1.70
2024-01-19T13:15:34.627Z,1.95
2024-01-19T13:19:59.546Z,1.95
2024-01-19T13:24:25.385Z,1.70
2024-01-19T13:28:49.433Z,1.73
2024-01-19T13:33:13.831Z,1.80
2024-01-19T13:37:38.908Z,2.25
2024-01-19T13:42:03.392Z,1.80
2024-01-19T13:46:26.829Z,2.25
2024-01-19T13:50:50.702Z,1.90
2024-01-19T13:55:16.492Z,2.17
2024-01-19T13:59:41.254Z,1.88
2024-01-19T14:04:06.534Z,2.13
2024-01-19T14:08:30.683Z,2.20
2024-01-19T14:12:55.797Z,2.00
2024-01-19T14:17:20.508Z,1.90
2024-01-19T14:21:42.139Z,2.33
2024-01-19T14:26:04.806Z,1.80
2024-01-19T14:30:47.766Z,2.07
2024-01-19T14:35:20.611Z,1.77
2024-01-19T14:39:59.109Z,2.42
2024-01-19T14:44:31.689Z,1.90
2024-01-19T14:48:56.552Z,1.63
2024-01-19T14:53:21.365Z,1.42
2024-01-19T14:57:44.800Z,1.98
2024-01-19T15:02:09.781Z,2.33
2024-01-19T15:06:34.718Z,1.90
2024-01-19T15:10:58.639Z,2.17
2024-01-19T15:15:22.362Z,1.98
2024-01-19T15:19:46.103Z,2.23
2024-01-19T15:24:10.800Z,1.75
2024-01-19T15:28:35.067Z,2.42
2024-01-19T15:32:58.468Z,2.53
2024-01-19T15:37:22.776Z,2.10
2024-01-19T15:41:47.423Z,2.50
2024-01-19T15:46:11.691Z,2.40
2024-01-19T15:50:35.085Z,2.20
2024-01-19T15:54:59.019Z,2.58
2024-01-19T15:59:23.889Z,2.40
2024-01-19T16:03:49.597Z,2.03
2024-01-19T16:08:14.398Z,2.30
2024-01-19T16:12:38.651Z,2.50
2024-01-19T16:17:05.943Z,2.37
2024-01-19T16:21:30.248Z,2.67
2024-01-19T16:25:53.576Z,2.55
2024-01-19T16:30:17.671Z,2.50
2024-01-19T16:34:42.593Z,2.67
2024-01-19T16:39:06.346Z,3.05
2024-01-19T16:43:29.695Z,3.20
2024-01-19T16:47:57.776Z,3.27
2024-01-19T16:52:22.519Z,3.47
2024-01-19T16:56:46.677Z,3.43
2024-01-19T17:01:10.046Z,3.67
2024-01-19T17:05:34.364Z,4.13
2024-01-19T17:09:59.063Z,3.80
2024-01-19T17:14:23.221Z,3.67
2024-01-19T17:18:46.931Z,3.83
2024-01-19T17:23:11.480Z,3.72
2024-01-19T17:27:36.281Z,3.70
2024-01-19T17:32:00.426Z,3.80
2024-01-19T17:36:24.099Z,3.83
2024-01-19T17:40:48.519Z,3.90
2024-01-19T17:45:21.503Z,3.67
2024-01-19T17:49:47.163Z,3.60
2024-01-19T17:54:10.542Z,3.70
2024-01-19T17:58:34.971Z,3.70
2024-01-19T18:03:01.327Z,3.80
2024-01-19T18:07:25.590Z,3.77
2024-01-19T18:11:51.146Z,3.37
2024-01-19T18:16:17.174Z,3.60
2024-01-19T18:20:44.750Z,3.50
2024-01-19T18:25:09.732Z,3.70
2024-01-19T18:29:34.295Z,3.60
2024-01-19T18:33:58.519Z,3.33
2024-01-19T18:38:24.360Z,3.57
2024-01-19T18:42:48.804Z,4.13
2024-01-19T18:47:12.315Z,4.00
2024-01-19T18:51:36.366Z,4.40
2024-01-19T18:56:01.371Z,4.23
2024-01-19T19:00:25.735Z,4.40
2024-01-19T19:04:49.340Z,4.20
2024-01-19T19:09:14.958Z,4.70
2024-01-19T19:13:39.912Z,4.60
2024-01-19T19:18:04.148Z,4.97
2024-01-19T19:22:27.505Z,4.23
2024-01-19T19:26:51.602Z,4.47
2024-01-19T19:31:16.340Z,4.73
2024-01-19T19:35:41.120Z,5.03
2024-01-19T19:40:04.733Z,4.97
2024-01-19T19:44:28.855Z,4.57
2024-01-19T19:48:56.176Z,5.23
2024-01-19T19:53:21.485Z,4.80
2024-01-19T19:57:45.059Z,4.97
2024-01-19T20:02:09.795Z,4.67
2024-01-19T20:06:34.575Z,4.83
2024-01-19T20:10:58.703Z,4.77
2024-01-19T20:15:25.212Z,5.00
2024-01-19T20:19:51.549Z,4.80
2024-01-19T20:24:16.613Z,4.20
2024-01-19T20:28:41.421Z,4.07
2024-01-19T20:33:06.445Z,4.23
2024-01-19T20:37:32.491Z,4.17
2024-01-19T20:41:58.870Z,3.90
2024-01-19T20:46:23.186Z,4.30
2024-01-19T20:50:46.602Z,3.90
2024-01-19T20:55:11.376Z,4.50
2024-01-19T20:59:38.896Z,3.80
2024-01-19T21:04:03.996Z,4.20
2024-01-19T21:08:28.704Z,4.27
2024-01-19T21:12:52.871Z,4.40
2024-01-19T21:17:18.054Z,3.97
2024-01-19T21:21:41.972Z,4.57
2024-01-19T21:26:05.923Z,4.00
2024-01-19T21:30:30.058Z,4.10
2024-01-19T21:34:55.195Z,4.37
2024-01-19T21:39:19.283Z,4.80
2024-01-19T21:43:42.963Z,4.50
2024-01-19T21:48:08.027Z,4.83
2024-01-19T21:52:33.370Z,4.20
2024-01-19T21:56:57.672Z,3.93
2024-01-19T22:01:21.366Z,4.10
2024-01-19T22:05:47.157Z,3.73
2024-01-19T22:10:12.273Z,3.73
2024-01-19T22:14:36.454Z,4.13
2024-01-19T22:18:59.995Z,3.60
2024-01-19T22:23:28.202Z,3.67
2024-01-19T22:27:53.049Z,3.90
2024-01-19T22:32:17.187Z,4.20
2024-01-19T22:36:40.630Z,4.63
2024-01-19T22:41:04.742Z,4.70
2024-01-19T22:45:29.580Z,4.67
2024-01-19T22:49:55.105Z,4.50
2024-01-19T22:54:18.815Z,4.75
2024-01-19T22:58:43.771Z,5.00
2024-01-19T23:03:09.314Z,5.10
2024-01-19T23:07:33.422Z,5.00
2024-01-19T23:11:57.161Z,4.43
2024-01-19T23:16:23.987Z,4.90
2024-01-19T23:20:49.988Z,4.37
2024-01-19T23:30:37.560Z,4.20
2024-01-19T23:35:04.083Z,4.03
2024-01-19T23:39:29.173Z,3.67
2024-01-19T23:43:52.597Z,4.23
2024-01-19T23:48:16.584Z,4.07
2024-01-19T23:52:39.996Z,3.63
2024-01-19T23:57:05.587Z,4.30
